Pelican State — WDE4433 — position and weather

sailwx.info

Track history (hours):
 
Tides and Currents Weather Stations Pressure Air Temp Water Temp Dewpoint Dewpoint Depression Visibility Wind Speed Wind Dir Waves Ship Positions

Pelican State

More information available from US FCC via Universal Licensing System and Coast Guard Vessel Documentation Center.

Last reported at 2014-Jul-18 14:30 UTC. Time now 2014-Jul-24 17:50 UTC.
Position N 25°42' W 080°00'.

Length 183 m; draft 8.8 m.

Type: Tanker. MMSI: 367353110.

Date/timePositionNaut miles runAvg speedWind from/ knotsBaromVisibWave heightAir tempDewpointWater temp
2014-Jul-18 14:30N 25°42' W 080°00'1212.4
2014-Jul-18 13:33N 25°53' W 080°01'1313.1
2014-Jul-18 12:33N 26°06' W 080°01'1312.8
2014-Jul-18 11:33N 26°19' W 080°00'1312.5
2014-Jul-18 10:33N 26°31' W 079°59'1412.1
2014-Jul-18 09:24N 26°45' W 079°57'1012.2
2014-Jul-18 08:33N 26°56' W 079°58'1413.6
2014-Jul-18 07:33N 27°09' W 079°60'  
2014-Jul-14 16:10N 39°47' W 075°28'97 7.2
2014-Jul-14 02:34N 38°18' W 074°36'1515.4
2014-Jul-14 01:34N 38°03' W 074°30'1515.3
2014-Jul-14 00:33N 37°48' W 074°29'1615.6
2014-Jul-13 23:33N 37°33' W 074°27'1514.9
2014-Jul-13 22:33N 37°18' W 074°29'1514.8
2014-Jul-13 21:33N 37°03' W 074°31'1515.3
2014-Jul-13 20:33N 36°48' W 074°30'1515.4
2014-Jul-13 19:33N 36°32' W 074°31'1515.2
2014-Jul-13 18:33N 36°17' W 074°31'1514.8
2014-Jul-13 17:33N 36°02' W 074°31'1514.6
2014-Jul-13 16:33N 35°48' W 074°35'1616.4
2014-Jul-13 15:33N 35°33' W 074°42'1818.2
2014-Jul-13 14:33N 35°16' W 074°50'1918.3
2014-Jul-13 13:32N 34°59' W 075°01'53416.6
2014-Jul-12 05:16N 27°02' W 079°41'2118.6
2014-Jul-12 04:08N 26°41' W 079°43'1017.7
2014-Jul-12 03:34N 26°31' W 079°44'1717.1
2014-Jul-12 02:34N 26°14' W 079°47'1717.2
2014-Jul-12 01:34N 25°57' W 079°50'1717.2
2014-Jul-12 00:34N 25°40' W 079°53'  
Track history (hours):
 
Tides and Currents Weather Stations Pressure Air Temp Water Temp Dewpoint Dewpoint Depression Visibility Wind Speed Wind Dir Waves Ship Positions

Pelican State

More information available from US FCC via Universal Licensing System and Coast Guard Vessel Documentation Center.

Last reported at 2014-Jul-18 14:30 UTC. Time now 2014-Jul-24 17:50 UTC.
Position N 25°42' W 080°00'.

Length 183 m; draft 8.8 m.

Type: Tanker. MMSI: 367353110.

Date/timePositionNaut miles runAvg speedWind from/ knotsBaromVisibWave heightAir tempDewpointWater temp
2014-Jul-18 14:30N 25°42' W 080°00'1212.4
2014-Jul-18 13:33N 25°53' W 080°01'1313.1
2014-Jul-18 12:33N 26°06' W 080°01'1312.8
2014-Jul-18 11:33N 26°19' W 080°00'1312.5
2014-Jul-18 10:33N 26°31' W 079°59'1412.1
2014-Jul-18 09:24N 26°45' W 079°57'1012.2
2014-Jul-18 08:33N 26°56' W 079°58'1413.6
2014-Jul-18 07:33N 27°09' W 079°60'  
2014-Jul-14 16:10N 39°47' W 075°28'97 7.2
2014-Jul-14 02:34N 38°18' W 074°36'1515.4
2014-Jul-14 01:34N 38°03' W 074°30'1515.3
2014-Jul-14 00:33N 37°48' W 074°29'1615.6
2014-Jul-13 23:33N 37°33' W 074°27'1514.9
2014-Jul-13 22:33N 37°18' W 074°29'1514.8
2014-Jul-13 21:33N 37°03' W 074°31'1515.3
2014-Jul-13 20:33N 36°48' W 074°30'1515.4
2014-Jul-13 19:33N 36°32' W 074°31'1515.2
2014-Jul-13 18:33N 36°17' W 074°31'1514.8
2014-Jul-13 17:33N 36°02' W 074°31'1514.6
2014-Jul-13 16:33N 35°48' W 074°35'1616.4
2014-Jul-13 15:33N 35°33' W 074°42'1818.2
2014-Jul-13 14:33N 35°16' W 074°50'1918.3
2014-Jul-13 13:32N 34°59' W 075°01'53416.6
2014-Jul-12 05:16N 27°02' W 079°41'2118.6
2014-Jul-12 04:08N 26°41' W 079°43'1017.7
2014-Jul-12 03:34N 26°31' W 079°44'1717.1
2014-Jul-12 02:34N 26°14' W 079°47'1717.2
2014-Jul-12 01:34N 25°57' W 079°50'1717.2
2014-Jul-12 00:34N 25°40' W 079°53'  

Dump ship's entire track history